Time;durP1;ratioP1;P1;durP2;ratioP2;P2;SDS_P1;SDS_P2;PMS_P1;PMS_P2;Temp;Humidity;BMP_temperature;BMP_pressure;BME280_temperature;BME280_humidity;BME280_pressure;Samples;Min_cycle;Max_cycle;Signal;HPM_P1;HPM_P2
2021/12/16 00:08:15;;;;;;;17.02;11.48;;;1.40;99.90;;;;;;5093581;28;20055;-76
2021/12/16 00:10:44;;;;;;;11.30;7.95;;;1.40;99.90;;;;;;5092146;28;20132;-76
2021/12/16 00:30:02;;;;;;;12.40;8.70;;;1.50;99.90;;;;;;5080699;28;20113;-76
2021/12/16 00:32:59;;;;;;;20.27;11.95;;;1.60;99.90;;;;;;5092705;28;20572;-77
2021/12/16 00:35:25;;;;;;;15.93;10.82;;;1.60;99.90;;;;;;5093347;28;20474;-76
2021/12/16 00:37:51;;;;;;;12.38;9.05;;;1.60;99.90;;;;;;5093163;28;20062;-77
2021/12/16 00:40:18;;;;;;;13.45;9.07;;;1.50;99.90;;;;;;5093103;28;20034;-77
2021/12/16 00:42:55;;;;;;;21.15;14.45;;;1.40;99.90;;;;;;5074945;28;20123;-77
2021/12/16 00:56:03;;;;;;;6.07;5.03;;;1.50;99.90;;;;;;5094243;28;20047;-77
2021/12/16 00:58:40;;;;;;;6.40;4.78;;;1.40;99.90;;;;;;5095148;28;20040;-77
2021/12/16 01:01:49;;;;;;;5.70;4.50;;;1.40;99.90;;;;;;5093607;28;20159;-77
2021/12/16 01:04:40;;;;;;;7.97;5.13;;;1.40;99.90;;;;;;5094515;28;20081;-77
2021/12/16 01:08:17;;;;;;;9.65;5.72;;;1.40;99.90;;;;;;5096738;28;20117;-78
2021/12/16 01:50:54;;;;;;;39.15;22.17;;;1.60;99.90;;;;;;5095939;28;20062;-77
2021/12/16 01:56:37;;;;;;;15.00;10.68;;;1.70;99.90;;;;;;5096175;28;20039;-78
2021/12/16 01:59:05;;;;;;;33.38;19.42;;;1.70;99.90;;;;;;5095639;28;20483;-78
2021/12/16 02:01:34;;;;;;;59.63;31.38;;;1.70;99.90;;;;;;5095869;28;20044;-78
2021/12/16 02:04:12;;;;;;;45.30;24.73;;;1.80;99.90;;;;;;5094400;28;20036;-77
2021/12/16 02:09:32;;;;;;;30.25;18.10;;;1.70;99.90;;;;;;5095221;28;20075;-79
2021/12/16 02:31:36;;;;;;;19.10;12.70;;;1.80;99.90;;;;;;5095120;28;20059;-79
2021/12/16 02:34:20;;;;;;;14.90;10.57;;;1.80;99.90;;;;;;5093009;28;20040;-79
2021/12/16 02:36:43;;;;;;;12.35;9.15;;;1.80;99.90;;;;;;5094793;28;20036;-79
2021/12/16 02:39:18;;;;;;;19.77;13.43;;;1.70;99.90;;;;;;5077196;28;20093;-79
2021/12/16 02:41:48;;;;;;;13.43;8.43;;;1.80;99.90;;;;;;5094684;28;20123;-79
2021/12/16 02:44:29;;;;;;;19.08;13.73;;;1.70;99.90;;;;;;5094513;28;20066;-78
2021/12/16 02:49:47;;;;;;;19.08;11.35;;;1.70;99.90;;;;;;5094779;28;20120;-79
2021/12/16 02:52:14;;;;;;;14.43;9.77;;;1.70;99.90;;;;;;5094628;28;20139;-79
2021/12/16 02:54:40;;;;;;;15.38;9.57;;;1.80;99.90;;;;;;5076548;28;20067;-79
2021/12/16 02:57:07;;;;;;;16.50;9.85;;;1.90;99.90;;;;;;5076542;28;20134;-79
2021/12/16 02:59:34;;;;;;;12.82;8.68;;;1.90;99.90;;;;;;5094022;28;20140;-79
2021/12/16 03:02:09;;;;;;;14.45;9.20;;;1.90;99.90;;;;;;5076361;28;20040;-79
2021/12/16 03:04:38;;;;;;;14.73;10.13;;;1.90;99.90;;;;;;5094391;28;20036;-79
2021/12/16 03:07:05;;;;;;;17.10;11.25;;;1.90;99.90;;;;;;5094481;28;20040;-78
2021/12/16 03:14:55;;;;;;;10.55;8.35;;;1.90;99.90;;;;;;5094338;28;20067;-79
2021/12/16 03:17:29;;;;;;;12.73;8.85;;;1.80;99.90;;;;;;5093317;28;20031;-78
2021/12/16 03:22:46;;;;;;;19.05;12.65;;;1.90;99.90;;;;;;5093372;28;20039;-78
2021/12/16 03:25:23;;;;;;;14.43;9.30;;;1.90;99.90;;;;;;5093699;28;20052;-78
2021/12/16 03:33:28;;;;;;;14.35;9.40;;;1.80;99.90;;;;;;5094168;28;20495;-79
2021/12/16 03:36:07;;;;;;;10.93;8.38;;;1.80;99.90;;;;;;5093954;28;20101;-79
2021/12/16 03:38:37;;;;;;;11.32;8.10;;;1.70;99.90;;;;;;5093838;28;20048;-79
2021/12/16 03:41:05;;;;;;;9.52;7.25;;;1.70;99.90;;;;;;5093872;28;20040;-78
2021/12/16 03:43:34;;;;;;;8.50;6.03;;;1.70;99.90;;;;;;5093859;28;20044;-79
2021/12/16 03:49:17;;;;;;;10.32;7.18;;;1.70;99.90;;;;;;5093475;28;20028;-79
2021/12/16 03:51:50;;;;;;;7.07;5.35;;;1.70;99.90;;;;;;5092973;28;20059;-79
2021/12/16 03:54:21;;;;;;;9.10;5.95;;;1.70;99.90;;;;;;5093373;28;20044;-78
2021/12/16 03:56:48;;;;;;;7.68;5.97;;;1.70;99.90;;;;;;5093186;28;20489;-79
2021/12/16 03:59:19;;;;;;;11.95;8.55;;;1.60;99.90;;;;;;5093171;28;20044;-78
2021/12/16 04:01:46;;;;;;;10.55;7.78;;;1.80;99.90;;;;;;5075045;28;20042;-79
2021/12/16 04:04:12;;;;;;;12.30;8.48;;;1.90;99.90;;;;;;5093362;28;20048;-79
2021/12/16 04:06:38;;;;;;;14.63;9.70;;;1.90;99.90;;;;;;5075113;28;20033;-78
2021/12/16 04:09:07;;;;;;;10.77;8.35;;;1.90;99.90;;;;;;5093173;28;20079;-78
2021/12/16 04:11:41;;;;;;;10.32;7.18;;;1.80;99.90;;;;;;5093254;28;20050;-79
2021/12/16 04:14:12;;;;;;;4.80;4.10;;;1.80;99.90;;;;;;5093335;28;20024;-78
2021/12/16 04:16:46;;;;;;;5.78;4.50;;;1.70;99.90;;;;;;5093209;28;20078;-78
2021/12/16 04:19:15;;;;;;;7.60;5.35;;;1.70;99.90;;;;;;5074909;28;20150;-79
2021/12/16 04:21:44;;;;;;;10.27;7.15;;;1.70;99.90;;;;;;5093021;28;20040;-78
2021/12/16 04:24:11;;;;;;;7.65;6.03;;;1.70;99.90;;;;;;5092969;28;20067;-78
2021/12/16 04:26:40;;;;;;;10.75;7.78;;;1.70;99.90;;;;;;5092833;28;20044;-79
2021/12/16 04:29:07;;;;;;;11.80;8.50;;;1.70;99.90;;;;;;5092544;28;20071;-79
2021/12/16 04:31:34;;;;;;;12.85;8.82;;;1.80;99.90;;;;;;5092941;28;20433;-79
2021/12/16 04:34:00;;;;;;;12.93;8.45;;;1.80;99.90;;;;;;5092982;28;20044;-79
2021/12/16 04:36:26;;;;;;;8.25;6.43;;;1.70;99.90;;;;;;5074401;28;20139;-79
2021/12/16 04:38:53;;;;;;;8.88;6.45;;;1.70;99.90;;;;;;5092456;28;20554;-78
2021/12/16 04:41:19;;;;;;;7.43;5.32;;;1.70;99.90;;;;;;5092270;28;20057;-79
2021/12/16 04:43:49;;;;;;;7.60;5.20;;;1.70;99.90;;;;;;5092375;28;20043;-79
2021/12/16 04:46:19;;;;;;;6.93;4.85;;;1.80;99.90;;;;;;5092502;28;20032;-78
2021/12/16 04:48:49;;;;;;;6.77;5.00;;;1.70;99.90;;;;;;5073387;28;20123;-78
2021/12/16 04:51:15;;;;;;;7.25;5.03;;;1.80;99.90;;;;;;5070551;28;20294;-78
2021/12/16 04:53:42;;;;;;;5.95;4.47;;;1.80;99.90;;;;;;5071111;28;20044;-78
2021/12/16 04:56:09;;;;;;;6.63;4.78;;;1.80;99.90;;;;;;5070247;28;20118;-79
2021/12/16 04:58:36;;;;;;;5.63;4.10;;;1.70;99.90;;;;;;5072244;28;20079;-79
2021/12/16 05:01:04;;;;;;;6.53;4.38;;;1.60;99.90;;;;;;5084509;28;20044;-79
2021/12/16 05:03:30;;;;;;;5.82;4.18;;;1.60;99.90;;;;;;5069758;28;20064;-79
2021/12/16 05:05:56;;;;;;;6.53;4.85;;;1.60;99.90;;;;;;5074693;28;20544;-79
2021/12/16 05:08:23;;;;;;;6.88;5.03;;;1.60;99.90;;;;;;5092408;28;20028;-78
2021/12/16 05:10:51;;;;;;;7.35;5.35;;;1.60;99.90;;;;;;5092338;28;20075;-79
2021/12/16 05:13:19;;;;;;;6.40;5.10;;;1.60;99.90;;;;;;5092378;28;20046;-79
2021/12/16 05:15:46;;;;;;;7.15;5.22;;;1.60;99.90;;;;;;5074398;28;20564;-79
2021/12/16 05:18:20;;;;;;;7.13;4.97;;;1.70;99.90;;;;;;5092746;28;20048;-78
2021/12/16 05:20:46;;;;;;;6.93;4.47;;;1.60;99.90;;;;;;5074421;28;20131;-79
2021/12/16 05:28:28;;;;;;;6.57;4.97;;;1.60;99.90;;;;;;5092816;28;20071;-79
2021/12/16 05:30:54;;;;;;;7.18;5.32;;;1.60;99.90;;;;;;5092591;28;20056;-78
2021/12/16 05:33:22;;;;;;;7.65;5.25;;;1.60;99.90;;;;;;5092298;28;20048;-78
2021/12/16 05:35:48;;;;;;;6.30;5.13;;;1.60;99.90;;;;;;5074311;28;20540;-79
2021/12/16 05:38:15;;;;;;;9.00;6.05;;;1.60;99.90;;;;;;5092323;28;20044;-79
2021/12/16 05:40:41;;;;;;;9.27;6.00;;;1.60;99.90;;;;;;5093287;28;20036;-79
2021/12/16 05:43:10;;;;;;;6.80;5.43;;;1.70;99.90;;;;;;5095945;28;20040;-79
2021/12/16 05:45:37;;;;;;;8.32;6.38;;;1.60;99.90;;;;;;5096082;28;20828;-79
2021/12/16 05:48:06;;;;;;;8.70;5.97;;;1.70;99.90;;;;;;5095998;28;20050;-78
2021/12/16 05:50:34;;;;;;;8.30;6.90;;;1.70;99.90;;;;;;5096041;28;20885;-79
2021/12/16 05:53:00;;;;;;;9.98;6.85;;;1.70;99.90;;;;;;5095535;28;20051;-79
2021/12/16 05:55:26;;;;;;;8.02;6.40;;;1.70;99.90;;;;;;5095386;28;20040;-78
2021/12/16 05:57:52;;;;;;;8.75;6.78;;;1.70;99.90;;;;;;5095229;28;20100;-78
2021/12/16 06:00:26;;;;;;;10.07;7.30;;;1.70;99.90;;;;;;5095254;28;20093;-79
2021/12/16 06:02:53;;;;;;;15.05;8.93;;;1.70;99.90;;;;;;5095346;28;20048;-78
2021/12/16 06:05:19;;;;;;;9.98;7.60;;;1.80;99.90;;;;;;5095455;28;20036;-78
2021/12/16 06:07:45;;;;;;;12.07;9.25;;;1.70;99.90;;;;;;5077159;28;20043;-78
2021/12/16 06:10:40;;;;;;;8.10;5.88;;;1.70;99.90;;;;;;5095236;28;20044;-77
2021/12/16 06:12:59;;;;;;;7.22;5.32;;;1.70;99.90;;;;;;5094486;28;20121;-78
2021/12/16 06:26:44;;;;;;;5.63;4.38;;;1.60;99.90;;;;;;5095168;28;20681;-78
2021/12/16 06:29:10;;;;;;;6.20;4.47;;;1.70;99.90;;;;;;5093524;28;20550;-79
2021/12/16 06:31:36;;;;;;;5.15;4.40;;;1.70;99.90;;;;;;5093568;28;20134;-78
2021/12/16 06:34:03;;;;;;;6.88;4.80;;;1.70;99.90;;;;;;5093904;28;20051;-79
2021/12/16 06:36:29;;;;;;;6.75;5.00;;;1.70;99.90;;;;;;5094233;28;20451;-79
2021/12/16 06:38:55;;;;;;;6.43;5.13;;;1.70;99.90;;;;;;5095096;28;20040;-79
2021/12/16 06:41:21;;;;;;;6.47;5.32;;;1.70;99.90;;;;;;5095070;28;20513;-78
2021/12/16 06:43:50;;;;;;;5.55;4.45;;;1.80;99.90;;;;;;5094868;28;20123;-78
2021/12/16 06:46:19;;;;;;;6.53;4.90;;;2.40;99.90;;;;;;5093130;28;20475;-78
2021/12/16 06:48:49;;;;;;;5.28;3.75;;;1.80;99.90;;;;;;5074275;28;20031;-79
2021/12/16 06:51:23;;;;;;;7.70;4.63;;;1.80;99.90;;;;;;5114144;28;20047;-79
2021/12/16 06:54:03;;;;;;;5.57;4.20;;;1.70;99.90;;;;;;5114862;28;20062;-78
2021/12/16 06:56:37;;;;;;;4.93;4.00;;;2.10;99.90;;;;;;5096249;28;20563;-78
2021/12/16 06:59:11;;;;;;;5.47;4.32;;;1.80;99.90;;;;;;5096433;28;20397;-78
2021/12/16 07:01:40;;;;;;;6.45;5.05;;;1.80;99.90;;;;;;5114661;28;20050;-78
2021/12/16 07:04:12;;;;;;;10.93;5.63;;;1.80;99.90;;;;;;5114823;28;20256;-79
2021/12/16 07:06:40;;;;;;;5.75;4.75;;;1.80;99.90;;;;;;5114613;28;20490;-79
2021/12/16 07:09:13;;;;;;;6.03;5.18;;;1.80;99.90;;;;;;5096539;28;20046;-78
2021/12/16 07:11:42;;;;;;;7.38;4.70;;;1.80;99.90;;;;;;5096258;28;20035;-79
2021/12/16 07:14:15;;;;;;;5.70;4.65;;;1.80;99.90;;;;;;5114319;28;20031;-79
2021/12/16 07:16:50;;;;;;;5.57;4.30;;;1.80;99.90;;;;;;5114261;28;20046;-79
2021/12/16 07:19:15;;;;;;;4.75;4.25;;;1.80;99.90;;;;;;5114354;28;20039;-79
2021/12/16 07:21:44;;;;;;;6.50;4.60;;;1.80;99.90;;;;;;5114273;28;20038;-79
2021/12/16 07:24:12;;;;;;;5.72;4.00;;;1.90;99.90;;;;;;5114501;28;20038;-79
2021/12/16 07:26:39;;;;;;;7.15;5.75;;;1.80;99.90;;;;;;5114359;28;20165;-79
2021/12/16 07:29:06;;;;;;;6.25;4.25;;;1.90;99.90;;;;;;5096152;28;20092;-78
2021/12/16 07:31:33;;;;;;;6.22;4.65;;;1.80;99.90;;;;;;5095965;28;20044;-79
2021/12/16 07:34:00;;;;;;;6.65;4.93;;;1.80;99.90;;;;;;5102173;28;20061;-79
2021/12/16 07:36:27;;;;;;;6.35;4.63;;;1.90;99.90;;;;;;5093889;28;20066;-79
2021/12/16 07:38:54;;;;;;;7.80;5.10;;;1.90;99.90;;;;;;5087355;28;20043;-79
2021/12/16 07:41:24;;;;;;;5.40;4.50;;;1.90;99.90;;;;;;5075485;28;20041;-79
2021/12/16 07:43:58;;;;;;;6.13;4.25;;;1.90;99.90;;;;;;5073686;28;20422;-79
2021/12/16 07:46:25;;;;;;;5.68;3.83;;;1.90;99.90;;;;;;5073512;28;20036;-79
2021/12/16 07:48:51;;;;;;;6.93;5.70;;;1.90;99.90;;;;;;5073545;28;20135;-79
2021/12/16 07:51:18;;;;;;;7.72;5.75;;;2.00;99.90;;;;;;5093432;28;20117;-79
2021/12/16 07:53:45;;;;;;;11.80;7.68;;;2.00;99.90;;;;;;5113679;28;20104;-79
2021/12/16 07:56:10;;;;;;;8.98;6.43;;;2.00;99.90;;;;;;5113806;28;20476;-79
2021/12/16 07:58:37;;;;;;;8.02;5.32;;;2.10;99.90;;;;;;5113891;28;20073;-79
2021/12/16 08:01:04;;;;;;;10.23;6.43;;;2.00;99.90;;;;;;5113964;28;20092;-79
2021/12/16 08:03:35;;;;;;;9.27;6.05;;;1.90;99.90;;;;;;5094924;28;20067;-77
2021/12/16 08:06:07;;;;;;;11.30;8.30;;;2.00;99.90;;;;;;5105993;28;20052;-79
2021/12/16 08:08:33;;;;;;;6.63;5.25;;;2.00;99.90;;;;;;5072257;28;20039;-79
2021/12/16 08:11:00;;;;;;;17.00;11.38;;;2.00;99.90;;;;;;5068255;28;20435;-79
2021/12/16 08:13:26;;;;;;;17.90;10.70;;;2.00;99.90;;;;;;5073132;28;20052;-78
2021/12/16 08:15:52;;;;;;;34.22;20.00;;;2.10;99.90;;;;;;5073110;28;20036;-79
2021/12/16 08:18:18;;;;;;;16.70;11.27;;;2.10;99.90;;;;;;5073000;28;20045;-78
2021/12/16 08:20:44;;;;;;;12.43;7.85;;;2.10;99.90;;;;;;5072950;28;20399;-79
2021/12/16 08:23:10;;;;;;;15.98;9.98;;;2.10;99.90;;;;;;5054852;28;20369;-78
2021/12/16 08:25:37;;;;;;;18.85;13.02;;;2.10;99.90;;;;;;5072798;28;20045;-79
2021/12/16 08:28:04;;;;;;;13.18;9.05;;;2.10;99.90;;;;;;5054959;28;20042;-79
2021/12/16 08:30:34;;;;;;;13.35;9.02;;;2.10;99.90;;;;;;5072847;28;20402;-79
2021/12/16 08:33:04;;;;;;;9.52;7.65;;;2.10;99.90;;;;;;5072695;28;20041;-78
2021/12/16 08:35:31;;;;;;;9.80;7.57;;;2.10;99.90;;;;;;5072738;28;20063;-79
2021/12/16 08:37:58;;;;;;;12.07;8.52;;;2.10;99.90;;;;;;5072549;28;20048;-78
2021/12/16 08:40:25;;;;;;;8.48;6.18;;;2.20;99.90;;;;;;5072445;28;20127;-79
2021/12/16 08:42:51;;;;;;;8.65;6.47;;;2.10;99.90;;;;;;5072612;28;20058;-79
2021/12/16 08:45:22;;;;;;;21.70;16.15;;;2.10;99.90;;;;;;5075259;28;20047;-77
2021/12/16 08:47:48;;;;;;;12.60;8.45;;;2.20;99.90;;;;;;5081355;28;20060;-79
2021/12/16 08:50:17;;;;;;;17.15;12.35;;;2.20;99.90;;;;;;5067835;28;20079;-78
2021/12/16 08:52:44;;;;;;;12.68;9.73;;;2.30;99.90;;;;;;5084543;28;20098;-77
2021/12/16 08:55:11;;;;;;;9.52;7.10;;;2.30;99.90;;;;;;5073945;28;20499;-77
2021/12/16 08:57:38;;;;;;;8.57;6.45;;;2.20;99.90;;;;;;5074534;28;20040;-78
2021/12/16 09:00:09;;;;;;;9.65;6.93;;;2.20;99.90;;;;;;5076549;28;20032;-78
2021/12/16 09:02:35;;;;;;;12.27;7.35;;;2.20;99.90;;;;;;5092680;28;20037;-77
2021/12/16 09:05:05;;;;;;;11.93;8.23;;;2.30;99.90;;;;;;5076978;28;20043;-78
2021/12/16 09:07:31;;;;;;;10.27;7.10;;;2.30;99.90;;;;;;5090830;28;20032;-78
2021/12/16 09:09:58;;;;;;;20.58;13.48;;;2.30;99.90;;;;;;5090353;28;20731;-77
2021/12/16 09:14:59;;;;;;;11.25;7.53;;;2.30;99.90;;;;;;5094702;28;20054;-77
2021/12/16 09:17:26;;;;;;;14.48;8.68;;;2.40;99.90;;;;;;5077933;28;20032;-77
2021/12/16 09:19:54;;;;;;;44.65;28.50;;;2.40;99.90;;;;;;5080792;28;20036;-78
2021/12/16 09:22:22;;;;;;;29.75;19.63;;;2.40;99.90;;;;;;5076699;28;20040;-78
2021/12/16 09:24:49;;;;;;;11.05;8.35;;;2.50;99.90;;;;;;5076905;28;20036;-77
2021/12/16 09:27:16;;;;;;;7.85;5.80;;;2.40;99.90;;;;;;5095228;28;20108;-77
2021/12/16 09:29:43;;;;;;;23.58;18.98;;;2.30;99.90;;;;;;5094537;28;20479;-77
2021/12/16 09:32:10;;;;;;;11.15;8.10;;;2.40;99.90;;;;;;5095132;28;20524;-77
2021/12/16 09:34:38;;;;;;;14.32;9.13;;;2.40;99.90;;;;;;5076152;28;20048;-77
2021/12/16 09:37:07;;;;;;;17.08;11.88;;;2.50;99.90;;;;;;5094447;28;20046;-77
2021/12/16 09:39:33;;;;;;;11.35;7.45;;;2.50;99.90;;;;;;5075083;28;20032;-77
2021/12/16 09:42:00;;;;;;;11.50;8.65;;;2.50;99.90;;;;;;5075665;28;20039;-77
2021/12/16 09:44:29;;;;;;;10.02;7.10;;;2.50;99.90;;;;;;5093945;28;20443;-76
2021/12/16 09:46:58;;;;;;;7.88;5.88;;;2.60;99.90;;;;;;5082610;28;20078;-76
2021/12/16 09:49:24;;;;;;;8.75;6.13;;;2.50;99.90;;;;;;5093206;28;20044;-76
2021/12/16 09:51:52;;;;;;;9.30;5.50;;;2.60;99.90;;;;;;5096966;28;20044;-77
2021/12/16 09:54:24;;;;;;;9.00;7.28;;;2.50;99.90;;;;;;5092423;28;20045;-77
2021/12/16 09:56:51;;;;;;;11.18;7.28;;;2.70;99.90;;;;;;5098747;28;20503;-78
2021/12/16 09:59:18;;;;;;;8.65;5.55;;;2.70;99.90;;;;;;5113471;28;20070;-78
2021/12/16 10:01:47;;;;;;;10.88;6.78;;;2.60;99.90;;;;;;5092173;28;20068;-76
2021/12/16 10:04:19;;;;;;;9.98;7.45;;;2.60;99.90;;;;;;5108650;28;20035;-76
2021/12/16 10:06:49;;;;;;;12.18;7.82;;;2.90;99.90;;;;;;5103875;28;20050;-75
2021/12/16 10:09:16;;;;;;;11.30;7.28;;;2.70;99.90;;;;;;5094705;28;20082;-76
2021/12/16 10:11:45;;;;;;;9.55;7.22;;;2.70;99.90;;;;;;5096298;28;20089;-76
2021/12/16 10:19:27;;;;;;;10.82;6.50;;;2.80;99.90;;;;;;5098682;28;20482;-77
2021/12/16 10:22:14;;;;;;;17.15;10.25;;;2.70;99.90;;;;;;5097344;28;20067;-76
2021/12/16 10:24:40;;;;;;;13.50;8.63;;;2.80;99.90;;;;;;5105702;28;20051;-79
2021/12/16 10:27:11;;;;;;;9.10;6.50;;;2.90;99.90;;;;;;5101292;28;20048;-78
2021/12/16 10:29:40;;;;;;;9.35;6.63;;;2.80;99.90;;;;;;5085317;28;20058;-79
2021/12/16 10:32:26;;;;;;;18.60;12.25;;;2.80;99.90;;;;;;5101151;28;20055;-77
2021/12/16 10:34:58;;;;;;;7.82;6.10;;;3.00;99.90;;;;;;5093888;28;20160;-78
2021/12/16 10:37:34;;;;;;;12.25;7.57;;;2.80;99.90;;;;;;5078780;28;20036;-79
2021/12/16 10:40:40;;;;;;;7.68;6.05;;;3.00;99.90;;;;;;5074706;28;20506;-78
2021/12/16 10:43:11;;;;;;;9.75;5.93;;;3.00;99.90;;;;;;5104014;28;20063;-79
2021/12/16 10:45:45;;;;;;;8.35;6.20;;;2.90;99.90;;;;;;5115741;28;20100;-76
2021/12/16 10:48:19;;;;;;;10.73;7.03;;;2.90;99.90;;;;;;5093969;28;20039;-76
2021/12/16 10:50:54;;;;;;;9.68;6.97;;;3.00;99.90;;;;;;5095231;28;20434;-76
2021/12/16 10:54:17;;;;;;;10.48;6.80;;;3.00;99.90;;;;;;5094866;28;20048;-76
2021/12/16 10:56:49;;;;;;;13.82;7.55;;;3.10;99.90;;;;;;5030637;28;20029;-77
2021/12/16 10:59:26;;;;;;;11.32;7.43;;;3.10;99.90;;;;;;5048793;28;20042;-77
2021/12/16 11:01:57;;;;;;;14.98;7.78;;;3.10;99.90;;;;;;5096570;27;20134;-76
2021/12/16 11:04:25;;;;;;;14.20;8.15;;;3.10;99.90;;;;;;5096977;28;20057;-77
2021/12/16 11:07:22;;;;;;;12.38;7.57;;;3.20;99.90;;;;;;5096768;28;20521;-77
2021/12/16 11:09:55;;;;;;;9.25;6.57;;;3.10;99.90;;;;;;5074209;28;20193;-77
2021/12/16 11:12:50;;;;;;;13.40;7.72;;;3.10;99.90;;;;;;5094264;28;20534;-77
2021/12/16 11:15:24;;;;;;;14.23;7.30;;;3.20;99.90;;;;;;5056234;28;20047;-76
2021/12/16 11:17:56;;;;;;;11.23;7.00;;;3.20;99.90;;;;;;5056195;28;20083;-77
2021/12/16 11:20:30;;;;;;;11.82;6.68;;;3.30;99.90;;;;;;5074006;28;20055;-77
2021/12/16 11:23:10;;;;;;;20.50;7.32;;;3.30;99.90;;;;;;5074029;28;20536;-77
2021/12/16 11:26:11;;;;;;;14.53;8.57;;;3.30;99.90;;;;;;5074341;28;20044;-77
2021/12/16 11:28:48;;;;;;;15.05;7.43;;;3.20;99.90;;;;;;5064771;28;20526;-76
2021/12/16 11:31:20;;;;;;;10.88;6.72;;;3.20;99.90;;;;;;5089579;28;20037;-77
2021/12/16 11:33:52;;;;;;;11.82;7.30;;;3.10;99.90;;;;;;5073894;28;20067;-77
2021/12/16 11:36:20;;;;;;;14.68;8.18;;;3.10;99.90;;;;;;5055950;28;20091;-77
2021/12/16 11:38:49;;;;;;;10.00;6.85;;;3.30;99.90;;;;;;5055111;28;20041;-77
2021/12/16 11:41:29;;;;;;;13.13;7.88;;;3.20;99.90;;;;;;5055919;28;20087;-77
2021/12/16 11:44:19;;;;;;;11.37;7.30;;;3.30;99.90;;;;;;5073880;28;20036;-77
2021/12/16 11:46:57;;;;;;;12.52;8.35;;;3.30;99.90;;;;;;5073615;28;20395;-77
2021/12/16 11:49:42;;;;;;;13.38;7.63;;;3.40;99.90;;;;;;5073714;28;20044;-77
2021/12/16 11:52:12;;;;;;;14.25;8.15;;;3.50;99.90;;;;;;5073320;28;20060;-77
2021/12/16 11:54:44;;;;;;;12.75;7.40;;;3.60;99.90;;;;;;5073449;28;20627;-77
2021/12/16 11:57:43;;;;;;;13.43;8.15;;;3.50;99.90;;;;;;5055379;28;20483;-77
2021/12/16 12:00:21;;;;;;;14.15;7.78;;;3.40;99.90;;;;;;5065658;28;20097;-78
2021/12/16 12:02:53;;;;;;;10.63;7.28;;;4.10;99.90;;;;;;5085938;28;20499;-77
2021/12/16 12:05:44;;;;;;;19.25;12.02;;;4.10;99.90;;;;;;5079803;28;20032;-78
2021/12/16 12:08:12;;;;;;;;;;;4.10;99.90;;;;;;5091000;28;20542;-78
2021/12/16 12:10:38;;;;;;;13.80;7.50;;;4.20;99.90;;;;;;5073089;28;19914;-77
2021/12/16 12:13:07;;;;;;;11.82;7.85;;;4.10;99.90;;;;;;5091283;28;20131;-74
2021/12/16 12:15:53;;;;;;;9.35;7.18;;;4.20;99.90;;;;;;5092017;28;20032;-79
2021/12/16 12:18:44;;;;;;;10.85;7.38;;;4.40;99.90;;;;;;5069738;28;20044;-75
2021/12/16 12:21:48;;;;;;;12.70;8.35;;;4.30;99.90;;;;;;5070931;28;20391;-75
2021/12/16 12:24:26;;;;;;;10.13;6.97;;;4.30;99.90;;;;;;5070252;28;20044;-77
2021/12/16 12:26:56;;;;;;;12.10;6.30;;;4.50;99.90;;;;;;5071759;28;20072;-75
2021/12/16 12:29:30;;;;;;;8.60;5.63;;;4.40;99.90;;;;;;5070393;28;20047;-75
2021/12/16 12:31:57;;;;;;;13.40;6.53;;;4.50;99.90;;;;;;5069264;28;20068;-76
2021/12/16 12:34:25;;;;;;;7.80;5.28;;;4.40;99.90;;;;;;5072576;28;20067;-76
2021/12/16 12:36:54;;;;;;;13.07;6.93;;;4.10;99.90;;;;;;5052484;28;20038;-75
2021/12/16 12:39:23;;;;;;;9.68;6.78;;;4.00;99.90;;;;;;5052449;28;20089;-77
2021/12/16 12:41:50;;;;;;;8.68;5.82;;;4.10;99.90;;;;;;5069576;28;20028;-76
2021/12/16 12:44:16;;;;;;;7.22;5.55;;;3.90;99.90;;;;;;5052203;28;20063;-74
2021/12/16 12:46:44;;;;;;;7.80;5.50;;;3.90;99.90;;;;;;5061973;28;20127;-77
2021/12/16 12:49:14;;;;;;;9.13;5.82;;;3.90;99.90;;;;;;5067444;28;20037;-75
2021/12/16 12:51:47;;;;;;;9.30;6.85;;;3.70;99.90;;;;;;5069415;28;20045;-79
2021/12/16 12:54:34;;;;;;;8.82;6.13;;;3.60;99.90;;;;;;5076678;28;20523;-80
2021/12/16 12:57:22;;;;;;;10.05;6.50;;;3.50;99.90;;;;;;5081315;28;20064;-78
2021/12/16 12:59:48;;;;;;;10.23;6.60;;;3.60;99.90;;;;;;5074222;28;20036;-79
2021/12/16 13:02:14;;;;;;;9.15;6.90;;;3.60;99.90;;;;;;5074320;28;20127;-82
2021/12/16 13:05:04;;;;;;;9.93;6.30;;;3.50;99.90;;;;;;5058840;28;20407;-79
2021/12/16 13:08:02;;;;;;;9.52;7.10;;;3.50;99.90;;;;;;5075302;28;20475;-77
2021/12/16 13:10:36;;;;;;;8.38;6.10;;;3.50;99.90;;;;;;5075453;28;20050;-81
2021/12/16 13:17:05;;;;;;;9.48;7.15;;;3.50;99.90;;;;;;5093159;28;20032;-81
2021/12/16 13:27:40;;;;;;;8.73;6.95;;;3.40;99.90;;;;;;5093403;28;20581;-80
2021/12/16 13:33:00;;;;;;;12.00;7.50;;;3.40;99.90;;;;;;5091640;28;20052;-79
2021/12/16 13:35:35;;;;;;;10.73;7.43;;;3.50;99.90;;;;;;5079681;28;20035;-78
2021/12/16 13:38:08;;;;;;;11.32;7.82;;;3.40;99.90;;;;;;5093911;28;20042;-78
2021/12/16 13:40:43;;;;;;;12.13;8.48;;;3.50;99.90;;;;;;5112611;28;20031;-73
2021/12/16 13:43:20;;;;;;;11.02;7.72;;;3.50;99.90;;;;;;5113257;28;20035;-76
2021/12/16 13:46:13;;;;;;;10.60;8.23;;;3.50;99.90;;;;;;5096305;28;20039;-76
2021/12/16 13:48:55;;;;;;;13.77;7.95;;;3.50;99.90;;;;;;5073895;28;20042;-77
2021/12/16 14:03:19;;;;;;;14.07;8.75;;;3.50;99.90;;;;;;5080800;28;20032;-75
2021/12/16 14:06:21;;;;;;;14.90;8.95;;;3.60;99.90;;;;;;5099949;28;20498;-77
2021/12/16 14:08:49;;;;;;;11.70;7.72;;;3.50;99.90;;;;;;5097671;28;20082;-76
2021/12/16 14:14:49;;;;;;;21.30;11.50;;;3.50;99.90;;;;;;5092304;28;20040;-75
2021/12/16 14:23:27;;;;;;;15.73;11.57;;;3.40;99.90;;;;;;5095057;28;20035;-75
2021/12/16 14:26:15;;;;;;;15.23;10.68;;;3.40;99.90;;;;;;5074142;28;20530;-75
2021/12/16 14:39:48;;;;;;;14.95;11.13;;;3.40;99.90;;;;;;5090771;28;20032;-75
2021/12/16 14:45:41;;;;;;;13.43;9.25;;;3.40;99.90;;;;;;5092054;28;20060;-74
2021/12/16 14:48:24;;;;;;;12.38;9.32;;;3.40;99.90;;;;;;5073657;28;20061;-75
2021/12/16 14:50:59;;;;;;;13.00;8.65;;;3.40;99.90;;;;;;5074235;28;20109;-75
2021/12/16 14:53:34;;;;;;;13.57;9.30;;;3.40;99.90;;;;;;5072139;28;20052;-76
2021/12/16 14:56:26;;;;;;;12.77;8.85;;;3.40;99.90;;;;;;5090690;28;20028;-76
2021/12/16 14:58:57;;;;;;;12.90;9.32;;;3.40;99.90;;;;;;5093893;28;20139;-76
2021/12/16 15:01:29;;;;;;;14.35;9.88;;;3.30;99.90;;;;;;5091668;28;20048;-75
2021/12/16 15:03:55;;;;;;;12.88;9.25;;;3.30;99.90;;;;;;5091261;28;20039;-74
2021/12/16 15:07:14;;;;;;;13.80;10.05;;;3.30;99.90;;;;;;5074476;28;20536;-75
2021/12/16 15:09:36;;;;;;;11.45;8.85;;;3.30;99.90;;;;;;5088477;28;20040;-75
2021/12/16 15:12:18;;;;;;;13.20;8.95;;;3.30;99.90;;;;;;5091205;28;20576;-74
2021/12/16 15:36:42;;;;;;;14.88;10.32;;;3.40;99.90;;;;;;5090816;28;20089;-76
2021/12/16 15:45:41;;;;;;;12.13;9.45;;;3.30;99.90;;;;;;5085378;28;20043;-78
2021/12/16 15:48:22;;;;;;;12.45;10.52;;;3.30;99.90;;;;;;5069003;28;20117;-78
2021/12/16 15:50:55;;;;;;;11.65;9.35;;;3.30;99.90;;;;;;5085011;28;20391;-73
2021/12/16 15:53:29;;;;;;;13.63;10.07;;;3.40;99.90;;;;;;5091590;28;20062;-76
2021/12/16 15:56:01;;;;;;;13.13;10.60;;;3.40;99.90;;;;;;5090798;28;20032;-76
2021/12/16 15:58:30;;;;;;;13.30;10.10;;;3.40;99.90;;;;;;5089961;28;20039;-78
2021/12/16 16:01:02;;;;;;;13.38;10.48;;;3.40;99.90;;;;;;5090704;28;20044;-75
2021/12/16 16:03:29;;;;;;;11.82;9.10;;;3.40;99.90;;;;;;5089045;28;20039;-75
2021/12/16 16:06:01;;;;;;;11.45;9.23;;;3.60;99.90;;;;;;5072256;28;20418;-73
2021/12/16 16:08:30;;;;;;;16.70;9.13;;;3.50;99.90;;;;;;5072470;28;20036;-71
2021/12/16 16:11:00;;;;;;;11.90;9.45;;;3.50;99.90;;;;;;5072049;28;20040;-76
2021/12/16 16:13:32;;;;;;;11.77;9.67;;;3.50;99.90;;;;;;5072611;28;20048;-70
2021/12/16 16:16:02;;;;;;;13.07;9.27;;;3.50;99.90;;;;;;5057191;28;20039;-72
2021/12/16 16:20:59;;;;;;;12.30;10.27;;;3.70;99.90;;;;;;5089871;28;20395;-73
2021/12/16 16:23:25;;;;;;;13.20;10.35;;;3.80;99.90;;;;;;5087041;28;20040;-73
2021/12/16 16:25:52;;;;;;;14.27;10.40;;;3.60;99.90;;;;;;5081413;28;20527;-73
2021/12/16 16:28:21;;;;;;;11.25;9.18;;;3.70;99.90;;;;;;5071063;28;20040;-73
2021/12/16 16:30:52;;;;;;;11.52;9.15;;;3.60;99.90;;;;;;5069764;28;20047;-73
2021/12/16 16:33:24;;;;;;;;;;;3.70;99.90;;;;;;5071502;28;20044;-73
2021/12/16 16:35:55;;;;;;;32.80;21.90;;;3.70;99.90;;;;;;5070533;28;20402;-73
2021/12/16 16:38:36;;;;;;;29.40;20.30;;;3.70;99.90;;;;;;5052749;28;20068;-74
2021/12/16 16:41:15;;;;;;;13.88;10.45;;;3.70;99.90;;;;;;5087147;28;20060;-74
2021/12/16 16:43:49;;;;;;;15.27;10.20;;;3.60;99.90;;;;;;5090038;28;20470;-73
2021/12/16 16:46:44;;;;;;;16.98;12.13;;;3.60;99.90;;;;;;5072721;28;20072;-73
2021/12/16 16:49:23;;;;;;;15.63;11.07;;;3.70;99.90;;;;;;5070678;28;21488;-73
2021/12/16 16:51:51;;;;;;;14.30;10.52;;;3.70;99.90;;;;;;5091689;28;20047;-74
2021/12/16 16:54:26;;;;;;;15.05;11.98;;;3.70;99.90;;;;;;5090803;28;20067;-74
2021/12/16 16:57:18;;;;;;;15.25;11.10;;;3.70;99.90;;;;;;5090584;28;20036;-74
2021/12/16 16:59:57;;;;;;;16.05;13.35;;;3.50;99.90;;;;;;5075375;28;20036;-74
2021/12/16 17:02:35;;;;;;;15.35;13.10;;;3.50;99.90;;;;;;5072523;28;20099;-73